Time;durP1;ratioP1;P1;durP2;ratioP2;P2;SDS_P1;SDS_P2;PMS_P1;PMS_P2;Temp;Humidity;BMP_temperature;BMP_pressure;BME280_temperature;BME280_humidity;BME280_pressure;Samples;Min_cycle;Max_cycle;Signal;HPM_P1;HPM_P2
2021/10/05 00:00:15;;;;;;;0.70;0.70;;;;;;;11.07;100.00;-20983.31;4974749;28;20502;-72
2021/10/05 00:02:42;;;;;;;0.70;0.60;;;;;;;11.04;100.00;-20982.47;4973936;28;20442;-74
2021/10/05 00:05:10;;;;;;;0.70;0.60;;;;;;;10.99;100.00;-20980.97;4975075;28;20987;-73
2021/10/05 00:07:37;;;;;;;0.70;0.60;;;;;;;10.91;100.00;-20978.88;4974924;28;20450;-73
2021/10/05 00:10:07;;;;;;;0.70;0.60;;;;;;;10.95;100.00;-20980.00;4973833;28;20501;-73
2021/10/05 00:12:36;;;;;;;0.70;0.60;;;;;;;11.02;100.00;-20981.78;4971454;28;21022;-74
2021/10/05 00:15:05;;;;;;;0.70;0.60;;;;;;;11.04;100.00;-20982.47;4973003;28;20881;-73
2021/10/05 00:17:32;;;;;;;0.70;0.60;;;;;;;11.13;100.00;-20984.84;4974602;28;20535;-75
2021/10/05 00:19:59;;;;;;;0.70;0.60;;;;;;;11.22;100.00;-20987.31;4974369;28;20546;-73
2021/10/05 00:22:27;;;;;;;0.77;0.70;;;;;;;11.25;100.00;-20988.00;4974409;28;20459;-73
2021/10/05 00:24:54;;;;;;;0.80;0.70;;;;;;;11.32;100.00;-20990.09;4973279;28;20478;-74
2021/10/05 00:27:24;;;;;;;0.70;0.60;;;;;;;11.39;100.00;-20991.75;4972956;28;20466;-74
2021/10/05 00:29:52;;;;;;;0.70;0.70;;;;;;;11.35;100.00;-20990.78;4955789;28;20508;-73
2021/10/05 00:32:21;;;;;;;0.70;0.60;;;;;;;11.33;100.00;-20990.22;4954632;28;20801;-72
2021/10/05 00:34:57;;;;;;;0.70;0.60;;;;;;;11.19;100.00;-20986.34;4976546;28;21053;-73
2021/10/05 00:37:30;;;;;;;0.70;0.60;;;;;;;11.10;100.00;-20984.16;4977486;28;20464;-72
2021/10/05 00:40:10;;;;;;;0.70;0.70;;;;;;;11.08;100.00;-20983.59;4978687;28;20439;-72
2021/10/05 00:42:40;;;;;;;0.80;0.70;;;;;;;11.00;100.00;-20981.38;4977262;28;20468;-73
2021/10/05 00:45:12;;;;;;;0.70;0.60;;;;;;;11.01;100.00;-20981.50;4977779;28;20956;-73
2021/10/05 00:47:40;;;;;;;0.70;0.60;;;;;;;10.93;100.00;-20979.44;4976590;28;20849;-73
2021/10/05 00:50:15;;;;;;;0.70;0.60;;;;;;;10.94;100.00;-20979.72;4992761;28;20442;-73
2021/10/05 00:52:52;;;;;;;0.70;0.60;;;;;;;10.95;100.00;-20979.84;4978648;28;20477;-74
2021/10/05 00:55:25;;;;;;;0.70;0.60;;;;;;;11.06;100.00;-20983.03;4993075;28;20458;-74
2021/10/05 00:57:55;;;;;;;0.70;0.60;;;;;;;11.07;100.00;-20983.31;4977066;28;20466;-73
2021/10/05 01:00:32;;;;;;;0.70;0.60;;;;;;;11.15;100.00;-20985.25;4960938;28;20447;-74
2021/10/05 01:03:03;;;;;;;0.70;0.60;;;;;;;11.18;100.00;-20986.06;4976260;28;20443;-74
2021/10/05 01:05:35;;;;;;;0.70;0.60;;;;;;;11.28;100.00;-20988.84;4976352;28;20959;-73
2021/10/05 01:08:06;;;;;;;0.70;0.70;;;;;;;11.24;100.00;-20987.88;4977546;28;20462;-73
2021/10/05 01:10:42;;;;;;;0.70;0.60;;;;;;;11.11;100.00;-20984.28;4976015;28;20517;-74
2021/10/05 01:13:12;;;;;;;0.70;0.60;;;;;;;11.07;100.00;-20983.19;4975981;28;20410;-74
2021/10/05 01:15:45;;;;;;;0.70;0.60;;;;;;;11.10;100.00;-20984.16;4977181;28;20593;-74
2021/10/05 01:18:23;;;;;;;0.70;0.60;;;;;;;11.23;100.00;-20987.47;4976965;28;20454;-73
2021/10/05 01:20:57;;;;;;;0.70;0.60;;;;;;;11.20;100.00;-20986.63;4977281;28;20817;-74
2021/10/05 01:23:33;;;;;;;0.80;0.70;;;;;;;11.27;100.00;-20988.56;4976827;28;20474;-74
2021/10/05 01:26:06;;;;;;;0.70;0.60;;;;;;;11.28;100.00;-20988.84;4976818;28;20406;-74
2021/10/05 01:28:42;;;;;;;0.70;0.60;;;;;;;11.26;100.00;-20988.28;4967301;28;20960;-72
2021/10/05 01:31:19;;;;;;;1.00;0.80;;;;;;;11.19;100.00;-20986.34;4979198;28;20523;-73
2021/10/05 01:33:50;;;;;;;0.70;0.60;;;;;;;11.24;100.00;-20987.75;4977864;28;20455;-73
2021/10/05 01:36:22;;;;;;;0.70;0.60;;;;;;;11.11;100.00;-20984.41;4978277;28;20925;-72
2021/10/05 01:38:51;;;;;;;0.70;0.60;;;;;;;11.06;100.00;-20983.03;4977479;28;20451;-72
2021/10/05 01:41:18;;;;;;;0.70;0.70;;;;;;;10.95;100.00;-20980.00;4975981;28;20458;-72
2021/10/05 01:43:45;;;;;;;0.70;0.60;;;;;;;11.00;100.00;-20981.25;4991686;28;20438;-72
2021/10/05 01:46:13;;;;;;;0.70;0.67;;;;;;;10.96;100.00;-20980.28;4975758;28;20522;-75
2021/10/05 01:48:41;;;;;;;0.70;0.60;;;;;;;10.92;100.00;-20979.03;4976929;28;20434;-72
2021/10/05 01:51:09;;;;;;;0.70;0.60;;;;;;;10.97;100.00;-20980.56;4976472;28;20442;-72
2021/10/05 01:53:37;;;;;;;0.70;0.63;;;;;;;11.17;100.00;-20985.81;4976540;28;21008;-73
2021/10/05 01:56:05;;;;;;;0.70;0.60;;;;;;;11.26;100.00;-20988.28;4976521;28;20419;-72
2021/10/05 01:58:35;;;;;;;0.70;0.70;;;;;;;11.35;100.00;-20990.91;4976388;28;20525;-72
2021/10/05 02:01:02;;;;;;;0.90;0.90;;;;;;;11.35;100.00;-20990.78;4976614;28;20493;-72
2021/10/05 02:03:29;;;;;;;0.70;0.57;;;;;;;11.37;100.00;-20991.47;4974663;28;20454;-72
2021/10/05 02:05:56;;;;;;;0.70;0.60;;;;;;;11.38;100.00;-20991.59;4976416;28;20968;-74
2021/10/05 02:08:23;;;;;;;0.70;0.60;;;;;;;11.41;100.00;-20992.44;4976838;28;20493;-73
2021/10/05 02:10:52;;;;;;;0.70;0.70;;;;;;;11.43;100.00;-20992.84;4991421;28;20435;-73
2021/10/05 02:13:18;;;;;;;0.70;0.60;;;;;;;11.42;100.00;-20992.72;4991058;28;20481;-73
2021/10/05 02:15:45;;;;;;;0.70;0.70;;;;;;;11.42;100.00;-20992.72;4976798;28;20493;-72
2021/10/05 02:18:12;;;;;;;2.27;2.07;;;;;;;11.46;100.00;-20993.81;4975801;28;20522;-72
2021/10/05 02:20:39;;;;;;;0.70;0.60;;;;;;;11.47;100.00;-20994.09;4975467;28;20995;-73
2021/10/05 02:23:06;;;;;;;0.70;0.60;;;;;;;11.45;100.00;-20993.41;4976646;28;20545;-73
2021/10/05 02:25:34;;;;;;;0.70;0.70;;;;;;;11.52;100.00;-20995.34;4976826;28;20530;-73
2021/10/05 02:28:02;;;;;;;0.70;0.60;;;;;;;11.48;100.00;-20994.22;4965622;28;21027;-72
2021/10/05 02:30:30;;;;;;;0.70;0.60;;;;;;;11.41;100.00;-20992.44;4978030;28;20534;-73
2021/10/05 02:32:57;;;;;;;0.70;0.60;;;;;;;11.44;100.00;-20993.25;4991218;28;20942;-73
2021/10/05 02:35:24;;;;;;;0.70;0.60;;;;;;;11.46;100.00;-20993.69;4976080;28;20467;-73
2021/10/05 02:37:51;;;;;;;0.70;0.60;;;;;;;11.49;100.00;-20994.66;4976920;28;20503;-72
2021/10/05 02:40:18;;;;;;;0.70;0.60;;;;;;;11.50;100.00;-20994.91;4976190;28;20434;-73
2021/10/05 02:42:44;;;;;;;0.70;0.60;;;;;;;11.46;100.00;-20993.69;4975213;28;20447;-74
2021/10/05 02:45:13;;;;;;;0.70;0.70;;;;;;;11.50;100.00;-20994.91;4976237;28;20524;-72
2021/10/05 02:47:40;;;;;;;0.70;0.60;;;;;;;11.49;100.00;-20994.66;4975678;28;20467;-74
2021/10/05 02:50:08;;;;;;;0.70;0.70;;;;;;;11.51;100.00;-20995.06;4974920;28;20541;-72
2021/10/05 02:52:35;;;;;;;0.70;0.70;;;;;;;11.43;100.00;-20992.84;4974767;28;20478;-72
2021/10/05 02:55:02;;;;;;;0.70;0.60;;;;;;;11.48;100.00;-20994.38;4974908;28;20556;-74
2021/10/05 02:57:29;;;;;;;0.70;0.60;;;;;;;11.51;100.00;-20995.19;4973095;28;20485;-74
2021/10/05 02:59:56;;;;;;;0.70;0.60;;;;;;;11.46;100.00;-20993.69;4979822;28;20446;-74
2021/10/05 03:02:25;;;;;;;0.70;0.60;;;;;;;11.42;100.00;-20992.72;4976646;28;20846;-74
2021/10/05 03:04:52;;;;;;;0.70;0.60;;;;;;;11.37;100.00;-20991.31;4974595;28;20459;-73
2021/10/05 03:07:19;;;;;;;0.70;0.60;;;;;;;11.47;100.00;-20994.09;4975408;28;20516;-72
2021/10/05 03:09:45;;;;;;;0.70;0.60;;;;;;;11.45;100.00;-20993.53;4975831;28;20443;-72
2021/10/05 03:12:13;;;;;;;0.70;0.50;;;;;;;11.43;100.00;-20993.00;4974349;28;20438;-74
2021/10/05 03:14:39;;;;;;;0.70;0.60;;;;;;;11.41;100.00;-20992.44;4974116;28;20570;-74
2021/10/05 03:17:06;;;;;;;0.70;0.60;;;;;;;11.35;100.00;-20990.78;4975875;28;20797;-72
2021/10/05 03:19:35;;;;;;;0.70;0.67;;;;;;;11.35;100.00;-20990.91;4975608;28;20826;-73
2021/10/05 03:22:02;;;;;;;0.70;0.60;;;;;;;11.38;100.00;-20991.59;4975159;28;20505;-73
2021/10/05 03:24:29;;;;;;;0.70;0.70;;;;;;;11.34;100.00;-20990.50;4973842;28;20553;-73
2021/10/05 03:26:56;;;;;;;0.70;0.60;;;;;;;11.29;100.00;-20989.13;4974694;28;20522;-72
2021/10/05 03:29:23;;;;;;;0.70;0.50;;;;;;;11.28;100.00;-20988.84;4974399;28;20800;-72
2021/10/05 03:31:50;;;;;;;0.70;0.60;;;;;;;11.28;100.00;-20988.97;4973395;28;20442;-72
2021/10/05 03:34:17;;;;;;;0.70;0.60;;;;;;;11.33;100.00;-20990.34;4974837;28;20432;-74
2021/10/05 03:36:45;;;;;;;0.70;0.60;;;;;;;11.34;100.00;-20990.50;4974835;28;20446;-73
2021/10/05 03:39:12;;;;;;;0.70;0.60;;;;;;;11.27;100.00;-20988.72;4974791;28;20538;-72
2021/10/05 03:41:39;;;;;;;0.70;0.60;;;;;;;11.20;100.00;-20986.78;4973910;28;20486;-72
2021/10/05 03:44:06;;;;;;;0.70;0.60;;;;;;;11.21;100.00;-20987.03;4972966;28;20494;-72
2021/10/05 03:46:33;;;;;;;0.70;0.60;;;;;;;11.31;100.00;-20989.69;4974324;28;20422;-73
2021/10/05 03:49:00;;;;;;;0.70;0.50;;;;;;;11.39;100.00;-20991.75;4974471;28;20945;-74
2021/10/05 03:51:26;;;;;;;0.70;0.60;;;;;;;11.40;100.00;-20992.16;4973506;28;20487;-74
2021/10/05 03:53:57;;;;;;;0.70;0.60;;;;;;;11.50;100.00;-20994.91;4974659;28;20485;-72
2021/10/05 03:56:24;;;;;;;0.70;0.57;;;;;;;11.53;100.00;-20995.75;4961417;28;20494;-73
2021/10/05 03:58:51;;;;;;;0.70;0.60;;;;;;;11.54;100.00;-20996.03;4972608;28;20497;-73
2021/10/05 04:01:18;;;;;;;0.70;0.60;;;;;;;11.47;100.00;-20994.09;4971932;28;20539;-74
2021/10/05 04:03:45;;;;;;;0.70;0.63;;;;;;;11.51;100.00;-20995.19;4973640;28;20419;-74
2021/10/05 04:06:12;;;;;;;0.70;0.60;;;;;;;11.57;100.00;-20996.72;4987732;28;20472;-74
2021/10/05 04:08:40;;;;;;;0.70;0.60;;;;;;;11.62;100.00;-20998.09;4971340;28;20529;-73
2021/10/05 04:11:08;;;;;;;0.70;0.60;;;;;;;11.59;100.00;-20997.28;4972891;28;20438;-73
2021/10/05 04:13:35;;;;;;;0.70;0.50;;;;;;;11.53;100.00;-20995.75;4972772;28;20479;-74
2021/10/05 04:16:02;;;;;;;0.70;0.50;;;;;;;11.59;100.00;-20997.41;4971718;28;20637;-74
2021/10/05 04:18:29;;;;;;;0.70;0.50;;;;;;;11.55;100.00;-20996.31;4973065;28;20431;-73
2021/10/05 04:20:57;;;;;;;0.70;0.60;;;;;;;11.47;100.00;-20994.09;4989029;28;20523;-74
2021/10/05 04:23:24;;;;;;;0.70;0.63;;;;;;;11.36;100.00;-20991.19;4972347;28;20467;-74
2021/10/05 04:25:51;;;;;;;0.70;0.60;;;;;;;11.39;100.00;-20991.88;4974028;28;20528;-74
2021/10/05 04:28:19;;;;;;;0.70;0.60;;;;;;;11.41;100.00;-20992.28;4974011;28;20487;-74
2021/10/05 04:30:46;;;;;;;0.70;0.70;;;;;;;11.48;100.00;-20994.38;4974164;28;20440;-74
2021/10/05 04:33:13;;;;;;;0.70;0.70;;;;;;;11.46;100.00;-20993.81;4971931;28;20521;-74
2021/10/05 04:35:40;;;;;;;0.70;0.60;;;;;;;11.49;100.00;-20994.50;4972698;28;20478;-74
2021/10/05 04:38:07;;;;;;;0.70;0.60;;;;;;;11.47;100.00;-20993.97;4972607;28;20560;-74
2021/10/05 04:40:34;;;;;;;0.70;0.60;;;;;;;11.45;100.00;-20993.53;4973961;28;20534;-74
2021/10/05 04:43:01;;;;;;;0.67;0.57;;;;;;;11.39;100.00;-20991.88;4972688;28;20797;-75
2021/10/05 04:45:29;;;;;;;0.70;0.60;;;;;;;11.30;100.00;-20989.53;4973891;28;20479;-75
2021/10/05 04:47:56;;;;;;;0.73;0.70;;;;;;;11.21;100.00;-20986.91;4989085;28;20429;-74
2021/10/05 04:50:23;;;;;;;0.70;0.60;;;;;;;11.27;100.00;-20988.56;4974049;28;20415;-73
2021/10/05 04:52:50;;;;;;;0.70;0.50;;;;;;;11.21;100.00;-20986.91;4972656;28;20968;-73
2021/10/05 04:55:19;;;;;;;0.70;0.70;;;;;;;11.20;100.00;-20986.78;4973706;28;20470;-74
2021/10/05 04:57:46;;;;;;;0.70;0.60;;;;;;;11.23;100.00;-20987.59;4988545;28;20538;-75
2021/10/05 05:00:14;;;;;;;0.97;0.97;;;;;;;11.21;100.00;-20986.91;4974138;28;20434;-75
2021/10/05 05:02:42;;;;;;;0.70;0.60;;;;;;;11.27;100.00;-20988.56;4961107;28;20523;-74
2021/10/05 05:05:09;;;;;;;0.70;0.70;;;;;;;11.29;100.00;-20989.13;4953281;29;20456;-75
2021/10/05 05:07:36;;;;;;;0.70;0.60;;;;;;;11.29;100.00;-20989.13;4954547;28;20509;-74
2021/10/05 05:10:05;;;;;;;0.70;0.70;;;;;;;11.34;100.00;-20990.63;4953589;29;20471;-73
2021/10/05 05:12:32;;;;;;;0.70;0.50;;;;;;;11.47;100.00;-20994.09;4954259;28;20531;-72
2021/10/05 05:15:00;;;;;;;0.70;0.50;;;;;;;11.51;100.00;-20995.06;4953120;29;20506;-74
2021/10/05 05:17:27;;;;;;;0.70;0.60;;;;;;;11.46;100.00;-20993.81;4954935;28;20944;-72
2021/10/05 05:19:55;;;;;;;0.70;0.60;;;;;;;11.45;100.00;-20993.53;4974404;28;20417;-73
2021/10/05 05:22:22;;;;;;;0.70;0.60;;;;;;;11.45;100.00;-20993.53;4992424;28;20447;-73
2021/10/05 05:24:49;;;;;;;0.70;0.60;;;;;;;11.52;100.00;-20995.34;4976057;28;20454;-73
2021/10/05 05:27:16;;;;;;;0.70;0.60;;;;;;;11.49;100.00;-20994.66;4972789;28;20504;-73
2021/10/05 05:29:43;;;;;;;0.70;0.60;;;;;;;11.48;100.00;-20994.22;4976770;28;20505;-72
2021/10/05 05:32:10;;;;;;;0.70;0.60;;;;;;;11.46;100.00;-20993.81;4977271;28;20472;-74
2021/10/05 05:34:37;;;;;;;0.70;0.60;;;;;;;11.52;100.00;-20995.47;4976475;28;20749;-74
2021/10/05 05:37:06;;;;;;;0.70;0.60;;;;;;;11.55;100.00;-20996.16;4965443;28;20797;-74
2021/10/05 05:39:33;;;;;;;0.70;0.60;;;;;;;11.51;100.00;-20995.19;4957873;28;20451;-74
2021/10/05 05:42:00;;;;;;;0.70;0.60;;;;;;;11.61;100.00;-20997.81;4957932;28;20559;-74
2021/10/05 05:44:27;;;;;;;0.70;0.60;;;;;;;11.64;100.00;-20998.66;4988726;28;20539;-74
2021/10/05 05:46:55;;;;;;;0.70;0.60;;;;;;;11.65;100.00;-20998.78;4957420;28;20501;-74
2021/10/05 05:49:22;;;;;;;0.70;0.70;;;;;;;11.67;100.00;-20999.34;4957671;28;20516;-74
2021/10/05 05:51:49;;;;;;;0.70;0.60;;;;;;;11.69;100.00;-21000.03;4957619;28;20471;-74
2021/10/05 05:54:17;;;;;;;0.70;0.70;;;;;;;11.73;100.00;-21001.00;4963281;28;20550;-74
2021/10/05 05:56:44;;;;;;;0.70;0.50;;;;;;;11.77;100.00;-21002.09;4976475;28;20969;-73
2021/10/05 05:59:14;;;;;;;0.70;0.50;;;;;;;11.75;100.00;-21001.69;4976856;28;20416;-73
2021/10/05 06:01:41;;;;;;;0.70;0.60;;;;;;;11.73;100.00;-21001.13;4976969;28;21013;-72
2021/10/05 06:04:09;;;;;;;0.70;0.60;;;;;;;11.74;100.00;-21001.28;4975295;28;20455;-72
2021/10/05 06:06:36;;;;;;;0.70;0.60;;;;;;;11.82;100.00;-21003.50;4974970;28;20450;-74
2021/10/05 06:09:03;;;;;;;0.70;0.60;;;;;;;11.82;100.00;-21003.63;4991667;28;20857;-74
2021/10/05 06:11:35;;;;;;;0.70;0.60;;;;;;;11.90;100.00;-21005.69;4976174;28;20412;-72
2021/10/05 06:14:02;;;;;;;0.70;0.60;;;;;;;11.89;100.00;-21005.44;4991093;28;20438;-72
2021/10/05 06:16:29;;;;;;;0.70;0.70;;;;;;;11.91;100.00;-21005.97;4975074;28;20502;-73
2021/10/05 06:18:56;;;;;;;0.60;0.50;;;;;;;11.93;100.00;-21006.53;4974814;28;20501;-72
2021/10/05 06:21:23;;;;;;;0.70;0.50;;;;;;;12.04;100.00;-21009.44;4975801;28;20433;-72
2021/10/05 06:23:51;;;;;;;0.70;0.50;;;;;;;12.07;100.00;-21010.41;4976335;28;20497;-73
2021/10/05 06:26:18;;;;;;;0.87;0.87;;;;;;;12.08;100.00;-21010.53;4976049;28;20431;-72
2021/10/05 06:28:46;;;;;;;0.70;0.60;;;;;;;12.19;100.00;-21013.44;4976356;28;20424;-73
2021/10/05 06:31:13;;;;;;;0.70;0.60;;;;;;;12.29;100.00;-21016.19;4975118;28;20437;-72
2021/10/05 06:33:40;;;;;;;0.70;0.57;;;;;;;12.34;100.00;-21017.56;4962439;28;20933;-73
2021/10/05 06:36:09;;;;;;;1.10;0.80;;;;;;;12.45;100.00;-21020.63;4956731;28;20793;-72
2021/10/05 06:38:36;;;;;;;0.70;0.60;;;;;;;12.50;100.00;-21022.00;4974963;28;20499;-73
2021/10/05 06:41:03;;;;;;;0.70;0.60;;;;;;;12.65;100.00;-21025.84;4975874;28;20454;-74
2021/10/05 06:43:30;;;;;;;0.70;0.60;;;;;;;12.58;100.00;-21024.19;4991292;28;20452;-72
2021/10/05 06:45:58;;;;;;;0.70;0.60;;;;;;;12.70;100.00;-21027.22;4975765;28;20420;-73
2021/10/05 06:48:26;;;;;;;0.70;0.60;;;;;;;12.75;100.00;-21028.63;4968604;28;20776;-73
2021/10/05 06:50:53;;;;;;;0.70;0.57;;;;;;;12.87;100.00;-21031.94;4974819;28;20986;-73
2021/10/05 06:53:20;;;;;;;0.70;0.60;;;;;;;12.92;100.00;-21033.31;4974011;28;20441;-73
2021/10/05 06:55:47;;;;;;;0.70;0.70;;;;;;;13.00;100.00;-21035.38;4975678;28;20558;-72
2021/10/05 06:58:14;;;;;;;1.47;1.17;;;;;;;13.02;100.00;-21036.06;4974691;28;20421;-72
2021/10/05 07:00:41;;;;;;;0.70;0.60;;;;;;;13.01;100.00;-21035.78;4975194;28;20519;-73
2021/10/05 07:03:09;;;;;;;0.70;0.60;;;;;;;13.07;100.00;-21037.31;4974735;28;20436;-73
2021/10/05 07:05:37;;;;;;;0.70;0.60;;;;;;;13.05;100.00;-21036.75;4974223;28;21003;-72
2021/10/05 07:08:05;;;;;;;0.70;0.60;;;;;;;13.13;100.00;-21038.81;4975256;28;20460;-73
2021/10/05 07:10:33;;;;;;;0.70;0.60;;;;;;;13.11;100.00;-21038.28;4975236;28;20483;-74
2021/10/05 07:13:00;;;;;;;0.80;0.70;;;;;;;13.26;100.00;-21042.41;4975248;28;20438;-74
2021/10/05 07:15:28;;;;;;;0.70;0.70;;;;;;;13.34;100.00;-21044.63;4973901;28;20487;-74
2021/10/05 07:17:55;;;;;;;0.80;0.70;;;;;;;13.43;100.00;-21046.97;4975079;28;20473;-74
2021/10/05 07:20:27;;;;;;;0.80;0.70;;;;;;;13.50;100.00;-21048.88;4972821;28;20812;-75
2021/10/05 07:22:54;;;;;;;0.70;0.70;;;;;;;13.47;100.00;-21048.19;4975012;28;20451;-74
2021/10/05 07:25:22;;;;;;;0.80;0.70;;;;;;;13.59;100.00;-21051.22;4974695;28;21016;-73
2021/10/05 07:27:51;;;;;;;0.80;0.70;;;;;;;13.70;100.00;-21054.25;4972699;28;20440;-73
2021/10/05 07:30:23;;;;;;;0.70;0.70;;;;;;;13.75;100.00;-21055.78;4975113;28;20520;-73
2021/10/05 07:32:52;;;;;;;0.80;0.70;;;;;;;13.84;100.00;-21058.13;4975094;28;20445;-73
2021/10/05 07:35:19;;;;;;;0.70;0.70;;;;;;;13.73;100.00;-21055.09;4975063;28;20777;-74
2021/10/05 07:37:49;;;;;;;0.70;0.60;;;;;;;14.09;100.00;-21064.72;4974875;28;20540;-73
2021/10/05 07:40:20;;;;;;;0.70;0.63;;;;;;;14.13;100.00;-21065.84;4974493;28;20433;-73
2021/10/05 07:42:48;;;;;;;0.70;0.70;;;;;;;14.28;100.00;-21069.97;4972504;28;20415;-74
2021/10/05 07:45:15;;;;;;;0.70;0.60;;;;;;;14.40;100.00;-21073.28;4972381;28;20462;-73
2021/10/05 07:47:43;;;;;;;0.70;0.60;;;;;;;14.55;100.00;-21077.13;4958016;28;20434;-74
2021/10/05 07:50:10;;;;;;;0.70;0.60;;;;;;;14.61;100.00;-21078.78;4972661;28;20441;-74
2021/10/05 07:52:38;;;;;;;0.70;0.60;;;;;;;14.79;100.00;-21083.72;4973301;28;20826;-74
2021/10/05 07:55:08;;;;;;;0.70;0.70;;;;;;;14.90;100.00;-21086.63;4974821;28;20525;-75
2021/10/05 07:57:35;;;;;;;0.80;0.80;;;;;;;15.10;100.00;-21092.00;4973973;28;20526;-73
2021/10/05 08:00:05;;;;;;;0.70;0.70;;;;;;;14.87;100.00;-21085.94;4972914;28;20436;-73
2021/10/05 08:02:36;;;;;;;1.40;1.30;;;;;;;14.92;100.00;-21087.31;4973451;28;20402;-74
2021/10/05 08:05:04;;;;;;;0.70;0.60;;;;;;;15.02;100.00;-21089.94;4973224;28;20453;-74
2021/10/05 08:07:31;;;;;;;0.70;0.60;;;;;;;15.04;100.00;-21090.34;4972690;28;20869;-75
2021/10/05 08:09:58;;;;;;;0.70;0.60;;;;;;;15.06;100.00;-21091.03;4974547;28;20525;-73
2021/10/05 08:12:26;;;;;;;0.80;0.70;;;;;;;15.18;100.00;-21094.31;4973236;28;20428;-72
2021/10/05 08:14:53;;;;;;;0.70;0.70;;;;;;;15.26;100.00;-21096.38;4972832;28;20880;-75
2021/10/05 08:17:20;;;;;;;1.37;1.27;;;;;;;15.35;100.00;-21098.88;4974146;28;20575;-74
2021/10/05 08:19:48;;;;;;;0.70;0.70;;;;;;;15.40;100.00;-21100.09;4973440;28;20439;-73
2021/10/05 08:22:16;;;;;;;0.70;0.70;;;;;;;15.27;100.00;-21096.66;4963207;28;20523;-74
2021/10/05 08:24:44;;;;;;;0.70;0.70;;;;;;;15.47;100.00;-21102.03;4955042;28;20437;-73
2021/10/05 08:27:11;;;;;;;0.80;0.70;;;;;;;15.38;100.00;-21099.69;4954972;28;20431;-74
2021/10/05 08:29:42;;;;;;;0.80;0.80;;;;;;;15.36;100.00;-21099.00;4955887;28;20507;-74
2021/10/05 08:32:10;;;;;;;0.70;0.60;;;;;;;15.66;100.00;-21107.13;4974538;28;20438;-74
2021/10/05 08:34:38;;;;;;;0.80;0.77;;;;;;;15.68;100.00;-21107.66;4963918;28;20494;-72
2021/10/05 08:37:05;;;;;;;0.70;0.70;;;;;;;15.52;100.00;-21103.41;4954258;29;20532;-73
2021/10/05 08:39:33;;;;;;;0.80;0.80;;;;;;;15.55;100.00;-21104.09;4955099;28;20522;-75
2021/10/05 08:42:02;;;;;;;0.70;0.60;;;;;;;15.62;100.00;-21106.00;4955705;28;20491;-71
2021/10/05 08:44:29;;;;;;;0.80;0.70;;;;;;;15.52;100.00;-21103.25;4973103;28;20443;-72
2021/10/05 08:46:58;;;;;;;0.70;0.70;;;;;;;15.79;100.00;-21110.69;4974116;28;20446;-73
2021/10/05 08:49:26;;;;;;;0.70;0.60;;;;;;;16.21;100.00;-21121.81;4973574;28;20901;-73
2021/10/05 08:51:55;;;;;;;0.70;0.60;;;;;;;16.38;100.00;-21126.63;4974000;28;20811;-73
2021/10/05 08:54:23;;;;;;;0.70;0.70;;;;;;;16.85;100.00;-21139.13;4972312;28;20490;-73
2021/10/05 08:56:50;;;;;;;0.70;0.60;;;;;;;17.31;100.00;-21151.59;4976251;28;20554;-73
2021/10/05 08:59:20;;;;;;;0.70;0.60;;;;;;;17.71;100.00;-21162.16;4976744;28;20424;-73
2021/10/05 09:01:49;;;;;;;0.80;0.70;;;;;;;18.49;100.00;-21183.13;4978314;28;20439;-71
2021/10/05 09:04:18;;;;;;;0.80;0.70;;;;;;;18.45;100.00;-21182.03;4977745;28;20442;-74
2021/10/05 09:06:51;;;;;;;0.70;0.70;;;;;;;18.44;100.00;-21181.88;4977463;28;20424;-73
2021/10/05 09:09:19;;;;;;;0.70;0.70;;;;;;;18.80;100.00;-21191.63;4977719;28;20455;-75
2021/10/05 09:11:52;;;;;;;0.77;0.70;;;;;;;19.18;100.00;-21201.72;4977359;28;20410;-74
2021/10/05 09:14:20;;;;;;;0.70;0.60;;;;;;;19.28;100.00;-21204.47;5008867;28;20463;-74
2021/10/05 09:16:47;;;;;;;0.70;0.60;;;;;;;18.58;100.00;-21185.59;4976350;28;20542;-75
2021/10/05 09:19:16;;;;;;;0.70;0.60;;;;;;;18.93;100.00;-21195.03;4977637;28;20542;-73
2021/10/05 09:21:48;;;;;;;0.80;0.70;;;;;;;19.48;100.00;-21209.66;4975952;28;20442;-73
2021/10/05 09:24:27;;;;;;;0.70;0.60;;;;;;;20.36;100.00;-21233.19;4977670;28;20418;-74
2021/10/05 09:26:57;;;;;;;0.70;0.60;;;;;;;20.96;100.00;-21249.44;4977379;28;20451;-74
2021/10/05 09:29:27;;;;;;;0.73;0.60;;;;;;;20.96;100.00;-21249.28;4976050;28;20432;-74
2021/10/05 09:31:58;;;;;;;0.70;0.60;;;;;;;20.92;100.00;-21248.19;4977445;28;20435;-75
2021/10/05 09:34:40;;;;;;;0.70;0.60;;;;;;;21.88;100.00;-21273.84;4977260;28;20455;-74
2021/10/05 09:37:14;;;;;;;0.80;0.70;;;;;;;21.89;100.00;-21274.09;4975185;28;20459;-74
2021/10/05 09:39:44;;;;;;;0.70;0.60;;;;;;;21.58;100.00;-21265.94;4977374;28;20519;-74
2021/10/05 09:42:22;;;;;;;0.70;0.50;;;;;;;21.60;100.00;-21266.34;4976048;28;20436;-74
2021/10/05 09:44:56;;;;;;;0.70;0.60;;;;;;;20.27;100.00;-21231.00;4974428;28;20996;-74
2021/10/05 09:47:34;;;;;;;1.93;0.73;;;;;;;20.57;100.00;-21238.91;4973970;28;20463;-74
2021/10/05 09:50:07;;;;;;;0.80;0.63;;;;;;;20.95;100.00;-21249.00;4975735;28;20419;-75
2021/10/05 09:52:45;;;;;;;0.70;0.60;;;;;;;21.15;100.00;-21254.34;4976361;28;20479;-76
2021/10/05 09:55:13;;;;;;;0.70;0.60;;;;;;;21.32;100.00;-21258.97;4976940;28;20447;-73
2021/10/05 09:57:41;;;;;;;0.70;0.60;;;;;;;21.64;100.00;-21267.56;4976631;28;20495;-74
2021/10/05 10:00:11;;;;;;;0.70;0.50;;;;;;;22.05;100.00;-21278.47;4975949;28;20546;-77
2021/10/05 10:02:40;;;;;;;0.70;0.53;;;;;;;22.26;100.00;-21283.91;4976288;28;20901;-75
2021/10/05 10:05:10;;;;;;;0.70;0.60;;;;;;;21.81;100.00;-21271.94;4976427;28;20459;-75
2021/10/05 10:07:38;;;;;;;0.70;0.50;;;;;;;22.47;100.00;-21289.63;4975673;28;20462;-76
2021/10/05 10:10:10;;;;;;;0.70;0.57;;;;;;;22.23;100.00;-21283.25;4978287;28;20526;-74
2021/10/05 10:12:40;;;;;;;0.70;0.53;;;;;;;22.18;100.00;-21281.88;4976393;28;20779;-74
2021/10/05 10:15:09;;;;;;;0.70;0.50;;;;;;;22.48;100.00;-21289.91;4991159;28;20443;-74
2021/10/05 10:17:36;;;;;;;0.80;0.67;;;;;;;22.32;100.00;-21285.56;4976443;28;20471;-75
2021/10/05 10:20:05;;;;;;;0.70;0.60;;;;;;;22.09;100.00;-21279.56;4976230;28;20439;-74
2021/10/05 10:22:42;;;;;;;0.80;0.70;;;;;;;22.01;100.00;-21277.38;4975662;28;20956;-74
2021/10/05 10:25:23;;;;;;;1.00;0.80;;;;;;;22.45;100.00;-21289.09;4990888;28;20780;-74
2021/10/05 10:27:55;;;;;;;0.70;0.60;;;;;;;22.49;100.00;-21290.19;4973809;28;20455;-74
2021/10/05 10:30:25;;;;;;;0.70;0.60;;;;;;;22.55;100.00;-21291.69;4956882;28;20797;-74
2021/10/05 10:32:58;;;;;;;0.70;0.60;;;;;;;23.13;100.00;-21307.34;4957533;28;20460;-75
2021/10/05 10:35:25;;;;;;;0.80;0.70;;;;;;;23.05;100.00;-21305.16;4955823;29;20427;-75
2021/10/05 10:37:53;;;;;;;0.70;0.60;;;;;;;22.60;100.00;-21293.19;4957244;28;20491;-74
2021/10/05 10:40:33;;;;;;;0.70;0.60;;;;;;;23.50;100.00;-21317.00;4973621;28;20522;-74
2021/10/05 10:43:12;;;;;;;0.90;0.73;;;;;;;23.96;100.00;-21329.34;4975663;28;20411;-74
2021/10/05 10:45:44;;;;;;;0.70;0.70;;;;;;;24.13;100.00;-21333.84;4975854;28;20440;-75
2021/10/05 10:48:11;;;;;;;0.70;0.60;;;;;;;24.35;100.00;-21339.69;4975996;28;20777;-75
2021/10/05 10:50:39;;;;;;;0.70;0.50;;;;;;;24.09;100.00;-21332.75;4990317;28;20436;-75
2021/10/05 10:53:07;;;;;;;0.70;0.60;;;;;;;23.62;100.00;-21320.25;4975640;28;20526;-74
2021/10/05 10:55:36;;;;;;;0.70;0.50;;;;;;;23.48;100.00;-21316.56;4975887;28;20435;-74
2021/10/05 10:58:05;;;;;;;0.77;0.60;;;;;;;23.67;100.00;-21321.47;4975243;28;21002;-75
2021/10/05 11:00:33;;;;;;;0.73;0.60;;;;;;;23.04;100.00;-21304.88;4974283;28;20474;-74
2021/10/05 11:03:03;;;;;;;0.80;0.70;;;;;;;22.65;100.00;-21294.53;4974382;28;20439;-74
2021/10/05 11:05:33;;;;;;;0.70;0.60;;;;;;;22.73;100.00;-21296.44;4954935;28;20451;-74
2021/10/05 11:08:11;;;;;;;0.70;0.60;;;;;;;23.05;100.00;-21305.03;4954864;29;20520;-73
2021/10/05 11:10:40;;;;;;;0.70;0.60;;;;;;;23.14;100.00;-21307.59;4956521;28;20809;-74
2021/10/05 11:13:07;;;;;;;0.70;0.60;;;;;;;22.84;100.00;-21299.44;4954683;29;20543;-75
2021/10/05 11:15:39;;;;;;;0.80;0.70;;;;;;;22.69;100.00;-21295.34;4955868;28;20496;-75
2021/10/05 11:18:09;;;;;;;0.70;0.60;;;;;;;23.06;100.00;-21305.44;4970165;28;20461;-74
2021/10/05 11:20:43;;;;;;;0.80;0.70;;;;;;;22.81;100.00;-21298.63;4956082;28;20429;-75
2021/10/05 11:23:11;;;;;;;0.80;0.70;;;;;;;22.71;100.00;-21295.91;4956127;28;20551;-75